Latest Weather Observations for Spitfire Channel

IDQ60801

Issued at 10:02 pm EST Wednesday 6 May 2015 (issued every 30 minutes, with the page automatically refreshed every 10 minutes)

About weather observations | Map of weather stations | Latest weather observations for QLD | Other Formats
Station Details ID: 040927 Name: SPITFIRE CHANNEL BEACON Lat: -27.05 Lon: 153.27 Height: 7.0 m
Data from the previous 72 hours. | See also: Recent months for locations in Queensland
Date/Time
EST
Temp
°C
App
Temp
°C
Dew
Point
Rel
Hum
%
Delta-T
°C
Wind Press
QNH
hPa
Press
MSL
hPa
Rain
since 9 am
mm
Dir
 
Spd
km/h
Gust
km/h
Spd
kts
Gust
kts
06/10:00pm - - - - - WSW 7 11 4 6 - - -
06/09:30pm - - - - - W 11 15 6 8 - - -
06/09:00pm - - - - - W 13 15 7 8 - - -
06/08:30pm - - - - - WSW 13 15 7 8 - - -
06/08:00pm - - - - - W 9 11 5 6 - - -
06/07:30pm - - - - - NNE 6 7 3 4 - - -
06/07:00pm - - - - - NE 7 9 4 5 - - -
06/06:30pm - - - - - NE 11 13 6 7 - - -
06/06:00pm - - - - - NE 11 13 6 7 - - -
06/05:30pm - - - - - NNE 11 13 6 7 - - -
06/05:00pm - - - - - NE 9 9 5 5 - - -
06/04:30pm - - - - - ENE 6 7 3 4 - - -
06/04:00pm - - - - - ENE 6 7 3 4 - - -
06/03:30pm - - - - - CALM 0 0 0 0 - - -
06/03:00pm - - - - - E 2 2 1 1 - - -
06/02:30pm - - - - - ESE 4 4 2 2 - - -
06/02:00pm - - - - - ESE 4 4 2 2 - - -
06/01:30pm - - - - - SE 4 6 2 3 - - -
06/01:00pm - - - - - SE 7 7 4 4 - - -
06/12:30pm - - - - - SSE 9 11 5 6 - - -
06/12:00pm - - - - - SSE 11 13 6 7 - - -
06/11:30am - - - - - SSE 9 11 5 6 - - -
06/11:00am - - - - - SSE 7 9 4 5 - - -
06/10:30am - - - - - SSE 7 9 4 5 - - -
06/10:00am - - - - - S 7 9 4 5 - - -
06/09:30am - - - - - SW 4 6 2 3 - - -
06/09:00am - - - - - WSW 6 7 3 4 - - -
06/08:30am - - - - - WSW 7 9 4 5 - - -
06/08:00am - - - - - W 4 6 2 3 - - -
06/07:30am - - - - - SW 7 9 4 5 - - -
06/07:00am - - - - - WSW 9 11 5 6 - - -
06/06:30am - - - - - SW 4 6 2 3 - - -
06/06:00am - - - - - SW 6 7 3 4 - - -
06/05:30am - - - - - W 7 9 4 5 - - -
06/05:00am - - - - - WNW 15 17 8 9 - - -
06/04:30am - - - - - NW 13 15 7 8 - - -
06/04:00am - - - - - WNW 17 20 9 11 - - -
06/03:30am - - - - - NW 17 19 9 10 - - -
06/03:00am - - - - - NW 19 22 10 12 - - -
06/02:30am - - - - - NW 19 22 10 12 - - -
06/02:00am - - - - - NW 17 20 9 11 - - -
06/01:30am - - - - - NW 20 24 11 13 - - -
06/01:00am - - - - - NW 22 26 12 14 - - -
06/12:30am - - - - - NW 22 28 12 15 - - -
06/12:00am - - - - - NNW 22 24 12 13 - - -
 
Date/Time
EST
Temp
°C
App
Temp
°C
Dew
Point
Rel
Hum
%
Delta-T
°C
Wind Press
QNH
hPa
Press
MSL
hPa
Rain
since 9 am
mm
Dir
 
Spd
km/h
Gust
km/h
Spd
kts
Gust
kts
05/11:30pm - - - - - NNW 17 20 9 11 - - -
05/11:00pm - - - - - NNW 19 24 10 13 - - -
05/10:30pm - - - - - NNW 17 20 9 11 - - -
05/10:00pm - - - - - NW 11 15 6 8 - - -
05/09:30pm - - - - - NNW 17 19 9 10 - - -
05/09:00pm - - - - - NNW 15 17 8 9 - - -
05/08:30pm - - - - - NNW 15 15 8 8 - - -
05/08:00pm - - - - - N 13 17 7 9 - - -
05/07:30pm - - - - - N 15 17 8 9 - - -
05/07:00pm - - - - - N 13 17 7 9 - - -
05/06:30pm - - - - - N 15 19 8 10 - - -
05/06:00pm - - - - - N 15 17 8 9 - - -
05/05:30pm - - - - - N 15 17 8 9 - - -
05/05:00pm - - - - - NNE 15 15 8 8 - - -
05/04:30pm - - - - - NNE 15 17 8 9 - - -
05/04:00pm - - - - - NNE 13 15 7 8 - - -
05/03:30pm - - - - - NNE 15 17 8 9 - - -
05/03:00pm - - - - - NNE 11 13 6 7 - - -
05/02:30pm - - - - - NNE 11 11 6 6 - - -
05/02:00pm - - - - - NNE 11 13 6 7 - - -
05/01:30pm - - - - - NNE 9 11 5 6 - - -
05/01:00pm - - - - - NNE 6 7 3 4 - - -
05/12:30pm - - - - - N 4 6 2 3 - - -
05/12:00pm - - - - - CALM 0 0 0 0 - - -
05/11:30am - - - - - CALM 0 0 0 0 - - -
05/11:00am - - - - - ESE 4 6 2 3 - - -
05/10:30am - - - - - ESE 6 7 3 4 - - -
05/10:00am - - - - - SSE 6 6 3 3 - - -
05/09:30am - - - - - S 6 7 3 4 - - -
05/09:00am - - - - - SSW 7 9 4 5 - - -
05/08:30am - - - - - S 7 9 4 5 - - -
05/08:00am - - - - - S 7 9 4 5 - - -
05/07:30am - - - - - SSE 6 7 3 4 - - -
05/07:00am - - - - - S 9 11 5 6 - - -
05/06:30am - - - - - S 11 13 6 7 - - -
05/06:00am - - - - - S 9 11 5 6 - - -
05/05:30am - - - - - S 7 7 4 4 - - -
05/05:00am - - - - - S 9 9 5 5 - - -
05/04:30am - - - - - S 7 9 4 5 - - -
05/04:00am - - - - - SSW 9 11 5 6 - - -
05/03:30am - - - - - SW 11 13 6 7 - - -
05/03:00am - - - - - SW 9 11 5 6 - - -
05/02:30am - - - - - SW 11 13 6 7 - - -
05/02:00am - - - - - SW 11 11 6 6 - - -
05/01:30am - - - - - SW 15 17 8 9 - - -
05/01:00am - - - - - WSW 13 15 7 8 - - -
05/12:30am - - - - - WSW 13 15 7 8 - - -
05/12:00am - - - - - WSW 11 13 6 7 - - -
 
Date/Time
EST
Temp
°C
App
Temp
°C
Dew
Point
Rel
Hum
%
Delta-T
°C
Wind Press
QNH
hPa
Press
MSL
hPa
Rain
since 9 am
mm
Dir
 
Spd
km/h
Gust
km/h
Spd
kts
Gust
kts
04/11:30pm - - - - - WSW 9 13 5 7 - - -
04/11:00pm - - - - - WSW 11 11 6 6 - - -
04/10:30pm - - - - - W 9 11 5 6 - - -
04/10:00pm - - - - - WSW 9 9 5 5 - - -
04/09:30pm - - - - - WSW 9 11 5 6 - - -
04/09:00pm - - - - - WSW 9 9 5 5 - - -
04/08:30pm - - - - - SW 6 7 3 4 - - -
04/08:00pm - - - - - CALM 0 0 0 0 - - -
04/07:30pm - - - - - E 4 6 2 3 - - -
04/07:00pm - - - - - E 6 7 3 4 - - -
04/06:30pm - - - - - ENE 7 9 4 5 - - -
04/06:00pm - - - - - ENE 6 6 3 3 - - -
04/05:30pm - - - - - ENE 6 7 3 4 - - -
04/05:00pm - - - - - E 11 13 6 7 - - -
04/04:30pm - - - - - ENE 7 7 4 4 - - -
04/04:00pm - - - - - ESE 6 7 3 4 - - -
04/03:30pm - - - - - ESE 6 7 3 4 - - -
04/03:00pm - - - - - SE 6 6 3 3 - - -
04/02:30pm - - - - - SE 7 9 4 5 - - -
04/02:00pm - - - - - S 9 11 5 6 - - -
04/01:30pm - - - - - S 9 9 5 5 - - -
04/01:00pm - - - - - S 9 11 5 6 - - -
04/12:30pm - - - - - S 11 13 6 7 - - -
04/12:00pm - - - - - S 11 11 6 6 - - -
04/11:30am - - - - - S 11 13 6 7 - - -
04/11:00am - - - - - S 13 15 7 8 - - -
04/10:30am - - - - - S 9 11 5 6 - - -
04/10:00am - - - - - S 9 9 5 5 - - -
04/09:30am - - - - - S 7 9 4 5 - - -
04/09:00am - - - - - S 7 9 4 5 - - -
04/08:30am - - - - - S 7 9 4 5 - - -
04/08:00am - - - - - SSW 7 9 4 5 - - -
04/07:30am - - - - - S 11 13 6 7 - - -
04/07:00am - - - - - SSE 13 15 7 8 - - -
04/06:30am - - - - - SSE 13 15 7 8 - - -
04/06:00am - - - - - SSE 13 17 7 9 - - -
04/05:30am - - - - - SSE 13 17 7 9 - - -
04/05:00am - - - - - S 15 17 8 9 - - -
04/04:30am - - - - - S 13 17 7 9 - - -
04/04:00am - - - - - SW 9 11 5 6 - - -
04/03:30am - - - - - SSW 13 15 7 8 - - -
04/03:00am - - - - - SW 13 15 7 8 - - -
04/02:30am - - - - - SSW 13 15 7 8 - - -
04/02:00am - - - - - SSW 9 11 5 6 - - -
04/01:30am - - - - - SW 11 11 6 6 - - -
04/01:00am - - - - - WSW 13 15 7 8 - - -
04/12:30am - - - - - WSW 9 11 5 6 - - -
04/12:00am - - - - - W 9 9 5 5 - - -
 
Date/Time
EST
Temp
°C
App
Temp
°C
Dew
Point
Rel
Hum
%
Delta-T
°C
Wind Press
QNH
hPa
Press
MSL
hPa
Rain
since 9 am
mm
Dir
 
Spd
km/h
Gust
km/h
Spd
kts
Gust
kts
03/11:30pm - - - - - W 7 9 4 5 - - -
03/11:00pm - - - - - WNW 9 11 5 6 - - -
03/10:30pm - - - - - WNW 9 9 5 5 - - -

Other Formats:

Comma delimited format used in spreadsheet applications
http://www.bom.gov.au/fwo/IDQ60801/IDQ60801.94581.axf

JavaScript Object Notation format (JSON) in row-major order
http://www.bom.gov.au/fwo/IDQ60801/IDQ60801.94581.json